Time;durP1;ratioP1;P1;durP2;ratioP2;P2;SDS_P1;SDS_P2;PMS_P1;PMS_P2;Temp;Humidity;BMP_temperature;BMP_pressure;BME280_temperature;BME280_humidity;BME280_pressure;Samples;Min_cycle;Max_cycle;Signal;HPM_P1;HPM_P2
2024/04/12 00:03:58;;;;;;;2.60;1.13;;;;;;;10.00;88.62;151189.50;11213623;26;20041;-72
2024/04/12 00:09:00;;;;;;;2.28;1.17;;;;;;;9.83;90.30;151145.66;11211394;26;20076;-72
2024/04/12 00:14:03;;;;;;;2.63;1.20;;;;;;;9.82;90.66;151144.34;11212400;26;20473;-72
2024/04/12 00:19:12;;;;;;;1.13;1.00;;;;;;;9.86;90.97;151153.38;11212022;26;20325;-73
2024/04/12 00:24:16;;;;;;;2.00;1.38;;;;;;;10.10;89.78;151215.34;11212139;26;20352;-73
2024/04/12 00:29:36;;;;;;;1.13;1.05;;;;;;;9.71;91.48;151114.69;11212157;26;20015;-72
2024/04/12 00:34:47;;;;;;;2.15;1.40;;;;;;;9.63;92.47;151095.31;11180838;26;20000;-72
2024/04/12 00:39:49;;;;;;;1.83;1.08;;;;;;;9.44;93.12;151047.59;11211776;26;20013;-72
2024/04/12 00:44:58;;;;;;;2.63;1.63;;;;;;;9.35;93.57;151025.66;11209704;26;20362;-73
2024/04/12 00:50:03;;;;;;;2.10;1.15;;;;;;;9.44;92.85;151046.31;11211394;26;20031;-73
2024/04/12 00:55:09;;;;;;;3.22;1.77;;;;;;;9.44;94.67;151046.31;11211026;26;20052;-72
2024/04/12 01:00:19;;;;;;;3.13;1.33;;;;;;;9.23;95.47;150994.69;11210720;26;20011;-72
2024/04/12 01:05:22;;;;;;;2.50;1.38;;;;;;;9.46;95.16;151052.75;11211506;26;20451;-72
2024/04/12 01:10:25;;;;;;;3.35;1.60;;;;;;;9.20;96.83;150986.94;11210613;26;20007;-73
2024/04/12 01:15:37;;;;;;;1.63;1.10;;;;;;;9.29;95.82;151010.16;11210534;26;20004;-73
2024/04/12 01:20:40;;;;;;;2.08;1.20;;;;;;;9.10;96.22;150962.44;11214717;26;20007;-72
2024/04/12 01:25:44;;;;;;;1.98;1.20;;;;;;;9.01;96.66;150939.25;11217335;26;20011;-72
2024/04/12 01:30:47;;;;;;;1.17;1.05;;;;;;;9.04;97.18;150947.00;11217417;26;20014;-72
2024/04/12 01:35:49;;;;;;;2.42;1.20;;;;;;;9.13;96.91;150967.63;11217834;26;20007;-72
2024/04/12 01:40:57;;;;;;;3.15;1.40;;;;;;;8.98;97.33;150931.47;11217357;26;20003;-72
2024/04/12 01:46:07;;;;;;;1.45;1.20;;;;;;;8.83;98.77;150892.81;11216627;26;20023;-72
2024/04/12 01:51:13;;;;;;;1.45;0.90;;;;;;;8.76;99.39;150876.03;11217007;26;20032;-72
2024/04/12 01:56:15;;;;;;;1.95;1.48;;;;;;;8.81;99.24;150887.69;11216623;26;20003;-72
2024/04/12 02:01:17;;;;;;;2.00;1.30;;;;;;;8.63;99.97;150842.50;11216487;26;20434;-72
2024/04/12 02:06:22;;;;;;;1.98;1.20;;;;;;;8.78;99.40;150881.22;11214588;26;20004;-72
2024/04/12 02:11:24;;;;;;;2.30;1.40;;;;;;;8.82;98.66;150891.53;11215887;26;20078;-72
2024/04/12 02:16:27;;;;;;;1.98;1.00;;;;;;;8.83;97.92;150892.81;11216782;26;20009;-71
2024/04/12 02:21:31;;;;;;;1.40;1.10;;;;;;;8.77;98.32;150877.38;11216704;26;20008;-72
2024/04/12 02:26:34;;;;;;;1.65;1.15;;;;;;;8.64;98.61;150843.84;11216194;26;20043;-73
2024/04/12 02:31:38;;;;;;;1.65;1.00;;;;;;;8.56;98.92;150825.78;11215391;26;20007;-71
2024/04/12 02:36:40;;;;;;;2.53;1.30;;;;;;;8.36;100.00;150774.16;11216379;26;20352;-72
2024/04/12 02:41:42;;;;;;;2.13;1.50;;;;;;;8.38;100.00;150778.09;11215653;26;20012;-72
2024/04/12 02:46:44;;;;;;;3.25;1.42;;;;;;;8.63;99.79;150842.50;11216031;26;19996;-72
2024/04/12 02:51:47;;;;;;;2.03;1.40;;;;;;;8.54;99.41;150820.66;11215061;26;19999;-72
2024/04/12 02:56:49;;;;;;;3.55;1.40;;;;;;;8.51;99.29;150812.88;11215153;26;20012;-72
2024/04/12 03:01:51;;;;;;;2.03;1.40;;;;;;;8.30;100.00;150759.97;11215121;26;20040;-72
2024/04/12 03:06:55;;;;;;;2.80;1.38;;;;;;;8.24;100.00;150744.53;11212819;26;20003;-72
2024/04/12 03:12:00;;;;;;;2.03;1.30;;;;;;;8.28;100.00;150754.84;11214834;26;20004;-72
2024/04/12 03:17:04;;;;;;;2.08;1.40;;;;;;;8.34;100.00;150769.00;11215042;26;20053;-73
2024/04/12 03:22:06;;;;;;;2.20;1.20;;;;;;;8.19;100.00;150730.31;11217393;26;20014;-72
2024/04/12 03:27:08;;;;;;;1.88;1.30;;;;;;;8.40;100.00;150783.22;11216293;26;20019;-73
2024/04/12 03:32:12;;;;;;;2.35;1.60;;;;;;;8.21;100.00;150735.50;11214900;26;20018;-72
2024/04/12 03:37:36;;;;;;;3.35;1.90;;;;;;;8.29;100.00;150756.13;11213790;26;20077;-72
2024/04/12 03:42:41;;;;;;;1.98;1.52;;;;;;;8.01;100.00;150685.22;11214994;26;20014;-73
2024/04/12 03:47:44;;;;;;;2.23;1.40;;;;;;;7.95;100.00;150671.06;11212924;26;20022;-73
2024/04/12 03:52:48;;;;;;;2.42;1.40;;;;;;;7.82;100.00;150637.56;11213043;26;20024;-73
2024/04/12 03:57:51;;;;;;;3.22;1.33;;;;;;;7.94;100.00;150667.22;11212854;26;20072;-71
2024/04/12 04:02:53;;;;;;;3.65;1.45;;;;;;;7.94;100.00;150668.50;11213181;26;20008;-73
2024/04/12 04:07:55;;;;;;;2.00;1.30;;;;;;;7.85;100.00;150645.31;11212073;26;20038;-74
2024/04/12 04:12:57;;;;;;;1.67;1.10;;;;;;;7.86;100.00;150646.59;11212012;26;20369;-73
2024/04/12 04:18:01;;;;;;;3.85;1.95;;;;;;;8.06;100.00;150698.16;11212928;26;20014;-73
2024/04/12 04:23:05;;;;;;;3.22;1.70;;;;;;;8.25;100.00;150745.81;11210402;26;19999;-73
2024/04/12 04:28:09;;;;;;;4.55;1.63;;;;;;;8.13;100.00;150714.88;11212327;26;20057;-73
2024/04/12 04:33:12;;;;;;;3.38;1.90;;;;;;;8.06;100.00;150699.44;11210498;26;19996;-73
2024/04/12 04:38:16;;;;;;;2.92;1.88;;;;;;;8.03;100.00;150691.69;11213613;26;20019;-72
2024/04/12 04:43:23;;;;;;;4.05;2.00;;;;;;;8.21;100.00;150736.78;11210246;26;19999;-71
2024/04/12 04:48:25;;;;;;;2.83;2.03;;;;;;;7.97;100.00;150676.22;11212500;26;20007;-73
2024/04/12 04:53:29;;;;;;;5.60;1.73;;;;;;;8.14;100.00;150718.72;11214088;26;19995;-79
2024/04/12 04:58:34;;;;;;;3.65;1.60;;;;;;;8.31;100.00;150761.25;11219289;26;20003;-79
2024/04/12 05:03:36;;;;;;;4.45;1.80;;;;;;;8.50;100.00;150810.31;11217691;26;20004;-78
2024/04/12 05:08:39;;;;;;;3.00;1.60;;;;;;;8.63;100.00;150842.50;11218004;26;20018;-78
2024/04/12 05:13:41;;;;;;;2.22;1.60;;;;;;;8.83;100.00;150892.81;11215900;26;20000;-78
2024/04/12 05:18:49;;;;;;;1.50;1.23;;;;;;;8.94;100.00;150921.22;11219761;26;20041;-78
2024/04/12 05:23:51;;;;;;;1.45;1.10;;;;;;;9.16;99.96;150975.34;11218184;26;20004;-79
2024/04/12 05:28:56;;;;;;;3.72;3.15;;;;;;;9.18;95.41;150980.53;11213524;26;20455;-79
2024/04/12 05:34:00;;;;;;;2.25;1.30;;;;;;;9.42;95.45;151041.13;11219735;26;20023;-79
2024/04/12 05:39:08;;;;;;;3.33;1.50;;;;;;;9.65;93.76;151100.50;11219760;26;20014;-78
2024/04/12 05:44:18;;;;;;;4.22;1.48;;;;;;;9.65;92.87;151099.19;11216576;26;20014;-78
2024/04/12 05:49:22;;;;;;;2.28;1.15;;;;;;;9.74;92.54;151122.41;11213814;26;20003;-72
2024/04/12 05:54:24;;;;;;;1.75;1.17;;;;;;;10.01;91.72;151192.13;11209766;26;20072;-72
2024/04/12 05:59:26;;;;;;;2.78;1.30;;;;;;;9.98;90.84;151184.38;11211277;26;20014;-72
2024/04/12 06:04:28;;;;;;;2.28;1.08;;;;;;;10.17;91.33;151232.09;11210942;26;20080;-72
2024/04/12 06:09:34;;;;;;;3.05;1.27;;;;;;;10.69;85.16;151362.56;11216892;26;20045;-73
2024/04/12 06:14:38;;;;;;;2.28;1.20;;;;;;;10.94;85.22;151427.16;11215226;26;20347;-73
2024/04/12 06:19:40;;;;;;;1.33;0.88;;;;;;;11.15;82.96;151480.06;11215426;26;20007;-72
2024/04/12 06:24:48;;;;;;;1.58;0.98;;;;;;;11.15;82.12;151478.78;11218796;26;20076;-72
2024/04/12 06:29:57;;;;;;;3.70;1.38;;;;;;;11.55;79.47;151580.84;11218274;26;20058;-72
2024/04/12 06:35:03;;;;;;;1.17;1.05;;;;;;;11.81;79.35;151646.75;11216985;26;20019;-72
2024/04/12 06:40:08;;;;;;;1.73;1.08;;;;;;;12.15;77.00;151733.41;11217318;26;20014;-71
2024/04/12 06:45:15;;;;;;;1.52;1.10;;;;;;;12.09;77.13;151719.22;11214877;26;20007;-71
2024/04/12 06:50:18;;;;;;;1.75;1.10;;;;;;;12.35;77.40;151785.16;11216996;26;19999;-74
2024/04/12 06:55:22;;;;;;;1.02;1.00;;;;;;;12.39;75.97;151794.16;11219802;26;20004;-72
2024/04/12 07:00:29;;;;;;;2.13;1.38;;;;;;;12.96;73.34;151937.72;11221442;26;20451;-72
2024/04/12 07:05:31;;;;;;;4.63;1.35;;;;;;;12.75;72.41;151886.00;11220835;26;20003;-72
2024/04/12 07:10:33;;;;;;;2.33;0.98;;;;;;;13.19;75.43;151995.91;11217540;26;20463;-72
2024/04/12 07:15:35;;;;;;;1.17;0.80;;;;;;;13.39;71.66;152047.72;11219465;26;20467;-73
2024/04/12 07:20:44;;;;;;;3.60;1.65;;;;;;;13.63;70.31;152108.53;11219766;26;20000;-72
2024/04/12 07:25:46;;;;;;;2.13;1.33;;;;;;;13.90;70.16;152177.16;11220366;26;20031;-73
2024/04/12 07:30:48;;;;;;;2.20;1.30;;;;;;;13.66;70.67;152116.31;11217654;26;20000;-71
2024/04/12 07:35:51;;;;;;;2.17;1.13;;;;;;;13.58;70.67;152096.88;11216648;26;20023;-71
2024/04/12 07:40:53;;;;;;;1.48;0.98;;;;;;;13.84;70.13;152161.59;11215585;26;20467;-72
2024/04/12 07:45:56;;;;;;;1.65;1.10;;;;;;;13.85;69.87;152164.19;11215418;26;20409;-72
2024/04/12 07:51:00;;;;;;;3.00;1.40;;;;;;;13.89;69.43;152174.53;11213482;26;20015;-71
2024/04/12 07:56:08;;;;;;;1.75;1.30;;;;;;;14.56;67.46;152345.47;11214257;26;20014;-71
2024/04/12 08:06:19;;;;;;;2.40;1.35;;;;;;;15.44;65.42;152568.28;11212707;26;19932;-72
2024/04/12 08:11:34;;;;;;;1.20;0.80;;;;;;;15.46;63.79;152573.50;11213517;26;20004;-71
2024/04/12 08:16:46;;;;;;;3.47;1.67;;;;;;;15.71;62.53;152637.00;11211565;26;20068;-72
2024/04/12 08:21:50;;;;;;;2.58;1.00;;;;;;;15.83;62.85;152666.84;11213327;26;20073;-71
2024/04/12 08:26:52;;;;;;;2.45;0.90;;;;;;;15.92;62.26;152690.16;11212799;26;20344;-72
2024/04/12 08:37:16;;;;;;;4.55;1.08;;;;;;;16.60;59.82;152862.59;11213413;26;19999;-71
2024/04/12 08:42:28;;;;;;;5.20;1.80;;;;;;;17.21;59.04;153017.00;11212469;26;20014;-73
2024/04/12 08:47:36;;;;;;;2.00;0.70;;;;;;;17.22;55.65;153020.94;11212070;26;20073;-72
2024/04/12 08:52:43;;;;;;;2.25;0.80;;;;;;;17.76;55.68;153157.22;11211930;26;20340;-72
2024/04/12 08:57:47;;;;;;;1.93;0.60;;;;;;;18.54;51.12;153355.81;11213170;26;20000;-73
2024/04/12 09:02:58;;;;;;;1.35;0.60;;;;;;;18.65;46.56;153385.72;11212270;26;20355;-73
2024/04/12 09:08:03;;;;;;;1.40;0.70;;;;;;;18.83;46.28;153431.22;11211634;26;19996;-71
2024/04/12 09:13:15;;;;;;;2.65;0.50;;;;;;;18.77;47.41;153414.31;11210555;26;20018;-72
2024/04/12 09:18:26;;;;;;;1.83;0.40;;;;;;;19.02;44.90;153477.97;11211131;26;20451;-71
2024/04/12 09:23:41;;;;;;;0.57;0.45;;;;;;;19.50;44.22;153601.41;11210932;26;20003;-71
2024/04/12 09:28:44;;;;;;;1.58;0.40;;;;;;;19.36;43.09;153566.31;11208506;26;20333;-72
2024/04/12 09:33:50;;;;;;;1.05;0.40;;;;;;;19.70;42.47;153650.81;11210119;26;20015;-73
2024/04/12 09:38:59;;;;;;;0.45;0.40;;;;;;;19.86;41.09;153692.41;11210494;26;20074;-71
2024/04/12 09:44:03;;;;;;;1.85;0.40;;;;;;;19.77;40.77;153670.31;11215539;26;19999;-71
2024/04/12 10:37:45;;;;;;;0.85;0.50;;;;;;;21.96;35.62;154228.38;11217208;26;20335;-71
2024/04/12 10:42:52;;;;;;;1.25;0.40;;;;;;;21.87;35.89;154206.25;11218462;26;20508;-71
2024/04/12 10:47:54;;;;;;;0.95;0.95;;;;;;;22.03;35.22;154246.56;11217968;26;20459;-72
2024/04/12 10:53:05;;;;;;;1.15;0.50;;;;;;;22.42;34.30;154345.56;11216085;26;20014;-72
2024/04/12 10:58:09;;;;;;;1.92;0.63;;;;;;;22.55;36.47;154379.41;11215137;26;20012;-73
2024/04/12 11:03:17;;;;;;;1.48;0.90;;;;;;;22.06;36.35;154254.41;11215584;26;20032;-72
2024/04/12 11:08:25;;;;;;;1.20;0.60;;;;;;;22.20;35.27;154289.59;11217110;26;20006;-73
2024/04/12 11:13:29;;;;;;;2.40;0.52;;;;;;;22.01;36.82;154241.41;11216264;26;20007;-73
2024/04/12 11:34:41;;;;;;;0.73;0.30;;;;;;;22.59;35.33;154389.84;11215979;26;19999;-71
2024/04/12 11:39:45;;;;;;;1.17;0.40;;;;;;;22.41;34.52;154344.28;11215794;26;20007;-71
2024/04/12 11:44:47;;;;;;;1.52;0.30;;;;;;;22.24;34.23;154300.00;11219852;26;20010;-71
2024/04/12 11:49:57;;;;;;;1.02;0.50;;;;;;;22.21;35.10;154290.88;11215904;26;19999;-70
2024/04/12 11:55:00;;;;;;;0.90;0.40;;;;;;;22.13;36.94;154271.34;11212729;26;20004;-70
2024/04/12 12:00:09;;;;;;;0.47;0.30;;;;;;;21.98;35.55;154232.28;11213082;26;20020;-72
2024/04/12 12:05:17;;;;;;;2.03;0.50;;;;;;;21.76;37.64;154176.31;11212437;26;20014;-71
2024/04/12 12:10:22;;;;;;;1.50;0.60;;;;;;;22.05;37.41;154251.81;11212512;26;20548;-72
2024/04/12 12:15:23;;;;;;;0.77;0.40;;;;;;;22.34;36.09;154324.72;11212380;26;20044;-72
2024/04/12 12:20:25;;;;;;;0.75;0.32;;;;;;;22.17;37.27;154281.75;11181743;26;20072;-70
2024/04/12 12:25:27;;;;;;;0.38;0.20;;;;;;;22.51;37.51;154369.00;11211160;26;20003;-71
2024/04/12 12:30:33;;;;;;;0.85;0.40;;;;;;;22.77;38.60;154435.41;11209251;26;20007;-70
2024/04/12 12:35:35;;;;;;;1.65;0.43;;;;;;;23.00;36.29;154492.75;11211563;26;20012;-70
2024/04/12 12:40:38;;;;;;;0.32;0.30;;;;;;;22.54;38.30;154376.81;11212583;26;20084;-71
2024/04/12 12:45:40;;;;;;;1.25;0.38;;;;;;;22.65;36.16;154404.16;11211894;26;20007;-71
2024/04/12 12:50:42;;;;;;;0.43;0.30;;;;;;;22.43;36.03;154348.16;11212089;26;19996;-72
2024/04/12 12:55:47;;;;;;;1.27;0.25;;;;;;;22.34;35.74;154326.03;11211366;26;20524;-71
2024/04/12 13:00:49;;;;;;;0.80;0.28;;;;;;;22.32;39.37;154320.84;11212155;26;20481;-71
2024/04/12 13:05:52;;;;;;;2.28;0.35;;;;;;;22.07;37.33;154257.00;11212026;26;20012;-72
2024/04/12 13:10:55;;;;;;;0.65;0.30;;;;;;;21.89;36.68;154211.44;11210459;26;19995;-72
2024/04/12 13:15:58;;;;;;;1.38;0.40;;;;;;;21.75;37.29;154173.72;11214737;26;20007;-71
2024/04/12 13:21:04;;;;;;;1.08;0.40;;;;;;;21.66;39.00;154152.91;11210012;26;20019;-72
2024/04/12 13:26:06;;;;;;;0.60;0.30;;;;;;;21.83;38.82;154195.84;11145142;26;20041;-71
2024/04/12 13:31:14;;;;;;;1.38;0.73;;;;;;;21.86;38.42;154202.31;11144579;26;20028;-72
2024/04/12 13:36:19;;;;;;;0.60;0.28;;;;;;;21.63;40.04;154143.78;11141848;26;20108;-71
2024/04/12 13:41:22;;;;;;;0.70;0.40;;;;;;;21.62;39.17;154142.47;11144251;26;20035;-71
2024/04/12 13:51:49;;;;;;;0.82;0.22;;;;;;;21.36;41.58;154074.81;11142439;26;20028;-71
2024/04/12 13:56:56;;;;;;;1.08;0.40;;;;;;;21.62;41.83;154141.19;11143261;26;20115;-72
2024/04/12 14:01:58;;;;;;;0.95;0.40;;;;;;;21.74;41.57;154171.13;11144952;26;20374;-71
2024/04/12 14:07:01;;;;;;;0.93;0.40;;;;;;;21.48;43.50;154104.75;11143847;26;20020;-72
2024/04/12 14:12:03;;;;;;;0.75;0.40;;;;;;;21.51;45.44;154113.81;11143932;26;19996;-71
2024/04/12 14:17:12;;;;;;;0.68;0.32;;;;;;;21.56;46.06;154126.88;11143927;26;20352;-71
2024/04/12 14:22:14;;;;;;;0.20;0.20;;;;;;;21.51;46.37;154113.81;11143583;26;20051;-71
2024/04/12 14:27:16;;;;;;;2.13;0.45;;;;;;;21.71;43.96;154164.59;11142179;26;19996;-72
2024/04/12 14:32:22;;;;;;;0.82;0.30;;;;;;;21.76;44.61;154176.31;11141903;26;19996;-72
2024/04/12 14:37:26;;;;;;;0.63;0.35;;;;;;;21.64;44.10;154146.38;11142243;26;20000;-72
2024/04/12 14:42:28;;;;;;;0.80;0.40;;;;;;;21.35;45.66;154073.53;11143901;26;20004;-72
2024/04/12 14:47:30;;;;;;;1.50;0.30;;;;;;;21.47;44.76;154103.47;11143933;26;20398;-71
2024/04/12 14:52:31;;;;;;;0.60;0.40;;;;;;;21.49;46.29;154108.66;11144162;26;20051;-71
2024/04/12 14:57:33;;;;;;;0.73;0.30;;;;;;;21.45;46.86;154098.25;11141860;26;20008;-70
2024/04/12 15:50:27;;;;;;;0.98;0.35;;;;;;;21.61;45.41;154138.59;11143439;26;20004;-73
2024/04/12 15:55:32;;;;;;;0.40;0.30;;;;;;;21.29;46.90;154056.53;11143080;26;20036;-73
2024/04/12 16:11:16;;;;;;;3.28;0.93;;;;;;;21.22;47.24;154039.66;11141280;26;19995;-73
2024/04/12 16:16:18;;;;;;;0.82;0.30;;;;;;;21.24;47.63;154044.84;11143539;26;20008;-73
2024/04/12 16:21:23;;;;;;;1.08;0.40;;;;;;;21.33;46.74;154067.00;11143450;26;20006;-73
2024/04/12 16:26:25;;;;;;;0.57;0.32;;;;;;;21.06;48.53;153998.00;11139311;26;20008;-72
2024/04/12 16:31:28;;;;;;;1.77;0.70;;;;;;;21.06;47.52;153999.31;11137527;26;20000;-73
2024/04/12 16:36:31;;;;;;;2.95;0.50;;;;;;;20.79;48.83;153929.09;11139790;26;20007;-73
2024/04/12 16:41:33;;;;;;;0.52;0.30;;;;;;;20.68;49.49;153900.50;11139676;26;20000;-73
2024/04/12 16:46:35;;;;;;;0.60;0.20;;;;;;;20.70;49.15;153905.69;11139210;26;20012;-72
2024/04/12 16:51:37;;;;;;;0.75;0.40;;;;;;;20.55;50.32;153867.97;11138117;26;20000;-71
2024/04/12 16:56:39;;;;;;;0.75;0.40;;;;;;;20.28;51.83;153799.03;11139139;26;20018;-74
2024/04/12 17:01:41;;;;;;;0.52;0.30;;;;;;;20.05;52.51;153740.50;11140296;26;20001;-72
2024/04/12 17:06:43;;;;;;;0.63;0.60;;;;;;;19.91;53.58;153706.69;11138276;26;20007;-72
2024/04/12 17:11:45;;;;;;;1.50;1.30;;;;;;;19.81;54.12;153680.72;11137451;26;20000;-71
2024/04/12 17:16:48;;;;;;;0.40;0.40;;;;;;;19.76;54.64;153667.72;11137603;26;20015;-72
2024/04/12 17:21:50;;;;;;;0.35;0.32;;;;;;;19.59;55.42;153624.78;11135421;26;20408;-71
2024/04/12 17:26:53;;;;;;;0.63;0.50;;;;;;;19.39;56.32;153572.84;11136611;26;20004;-72
2024/04/12 17:31:56;;;;;;;0.68;0.50;;;;;;;19.21;57.37;153526.03;11137737;26;20073;-73
2024/04/12 17:36:58;;;;;;;0.65;0.40;;;;;;;19.01;58.04;153476.69;11136955;26;20016;-72
2024/04/12 17:42:00;;;;;;;2.70;0.70;;;;;;;18.85;59.78;153436.38;11134698;26;20024;-74
2024/04/12 17:47:04;;;;;;;0.73;0.60;;;;;;;18.71;61.67;153398.75;11136263;26;20008;-73
2024/04/12 17:52:08;;;;;;;1.63;0.70;;;;;;;18.48;62.11;153340.25;11134839;26;20070;-72
2024/04/12 17:57:10;;;;;;;1.23;0.88;;;;;;;18.32;62.30;153300.00;11136860;26;20472;-72
2024/04/12 18:02:12;;;;;;;1.33;0.77;;;;;;;18.16;63.57;153259.78;11140120;26;20422;-74
2024/04/12 18:07:17;;;;;;;1.02;0.70;;;;;;;18.09;63.49;153242.88;11143216;26;20004;-72
2024/04/12 18:12:19;;;;;;;1.42;0.70;;;;;;;17.94;64.95;153202.66;11143844;26;20004;-72
2024/04/12 18:17:21;;;;;;;1.15;0.60;;;;;;;17.76;65.43;153158.53;11143720;26;20005;-72
2024/04/12 18:22:24;;;;;;;1.15;0.75;;;;;;;17.50;66.81;153091.00;11143159;26;19996;-73
2024/04/12 18:27:26;;;;;;;1.80;0.70;;;;;;;17.40;67.58;153066.34;11143308;26;20008;-73
2024/04/12 18:32:28;;;;;;;1.23;0.70;;;;;;;17.12;69.20;152996.25;11141477;26;20012;-73
2024/04/12 18:48:13;;;;;;;3.67;1.20;;;;;;;17.38;68.35;153061.13;11142368;26;20027;-73
2024/04/12 18:53:15;;;;;;;3.45;1.20;;;;;;;17.19;69.74;153011.84;11141569;26;20008;-73
2024/04/12 18:58:17;;;;;;;1.40;0.85;;;;;;;16.89;71.65;152936.59;11141792;26;20000;-73
2024/04/12 19:03:19;;;;;;;1.90;1.00;;;;;;;16.59;73.46;152860.00;11142929;26;20036;-75
2024/04/12 19:08:22;;;;;;;1.92;1.10;;;;;;;16.46;74.32;152827.59;11141880;26;20439;-73
2024/04/12 19:13:24;;;;;;;1.95;1.00;;;;;;;16.38;75.22;152808.16;11141049;26;20016;-74
2024/04/12 19:18:29;;;;;;;2.67;1.50;;;;;;;16.26;75.55;152777.03;11142257;26;20014;-74
2024/04/12 19:23:31;;;;;;;1.63;1.30;;;;;;;15.99;77.01;152708.34;11141539;26;20004;-74
2024/04/12 19:28:36;;;;;;;0.95;0.85;;;;;;;15.87;77.29;152678.50;11141931;26;20056;-73
2024/04/12 19:33:38;;;;;;;1.58;0.90;;;;;;;15.82;77.33;152664.25;11141382;26;19997;-73
2024/04/12 19:38:40;;;;;;;1.75;1.05;;;;;;;15.67;77.93;152626.69;11140798;26;20018;-73
2024/04/12 19:43:45;;;;;;;1.05;0.73;;;;;;;15.81;76.83;152661.69;11141782;26;20490;-74
2024/04/12 19:48:47;;;;;;;1.48;0.90;;;;;;;15.64;77.41;152618.91;11140828;26;20050;-73
2024/04/12 19:53:51;;;;;;;1.48;1.00;;;;;;;15.71;76.42;152635.72;11140606;26;20022;-73
2024/04/12 19:58:53;;;;;;;1.45;0.77;;;;;;;15.70;76.86;152633.16;11141019;26;20467;-73
2024/04/12 20:03:55;;;;;;;1.17;0.80;;;;;;;15.67;77.12;152625.34;11139108;26;20073;-74
2024/04/12 20:08:57;;;;;;;4.85;0.77;;;;;;;15.74;76.59;152643.50;11139851;26;20000;-73
2024/04/12 20:14:00;;;;;;;0.73;0.70;;;;;;;15.93;75.68;152691.47;11138873;26;20527;-74
2024/04/12 20:19:01;;;;;;;1.50;0.70;;;;;;;16.17;74.80;152752.41;11138361;26;20073;-73
2024/04/12 20:24:08;;;;;;;1.10;1.00;;;;;;;15.87;76.64;152678.50;11138192;26;20014;-73
2024/04/12 20:29:16;;;;;;;2.50;0.98;;;;;;;15.87;76.44;152678.50;11137987;26;20046;-73
2024/04/12 20:39:39;;;;;;;1.38;0.80;;;;;;;16.02;74.67;152714.78;11137847;26;20480;-73
2024/04/12 20:44:41;;;;;;;1.23;0.90;;;;;;;15.92;75.55;152690.16;11135400;26;20012;-73
2024/04/12 20:49:47;;;;;;;2.30;1.05;;;;;;;15.77;76.06;152651.31;11137156;26;19996;-73
2024/04/12 20:54:49;;;;;;;1.50;0.80;;;;;;;15.60;77.35;152608.47;11137244;26;20004;-73
2024/04/12 20:59:51;;;;;;;3.53;1.10;;;;;;;15.69;76.78;152631.84;11137888;26;20501;-72
2024/04/12 21:04:54;;;;;;;1.67;0.98;;;;;;;15.53;77.71;152591.59;11136758;26;20089;-72
2024/04/12 21:09:56;;;;;;;1.33;0.90;;;;;;;15.77;77.32;152651.31;11136371;26;20348;-73
2024/04/12 21:14:58;;;;;;;1.90;1.08;;;;;;;15.71;77.93;152635.72;11136288;26;20028;-73
2024/04/12 21:20:00;;;;;;;1.05;0.80;;;;;;;15.77;77.83;152652.59;11134882;26;20008;-72
2024/04/12 21:25:02;;;;;;;2.15;1.08;;;;;;;15.81;77.87;152662.97;11136120;26;20016;-73
2024/04/12 21:30:04;;;;;;;2.13;0.90;;;;;;;15.80;78.12;152659.03;11136119;26;20009;-73
2024/04/12 21:35:06;;;;;;;1.52;1.27;;;;;;;15.77;78.58;152652.59;11134562;26;20008;-73
2024/04/12 21:40:08;;;;;;;1.17;1.00;;;;;;;15.66;79.04;152622.78;11142599;26;20037;-72
2024/04/12 21:45:10;;;;;;;1.40;1.30;;;;;;;15.71;78.71;152635.72;11142142;26;20008;-74
2024/04/12 21:50:12;;;;;;;2.42;1.27;;;;;;;15.59;79.20;152607.19;11142404;26;20483;-74
2024/04/12 21:55:15;;;;;;;1.00;0.90;;;;;;;15.56;80.11;152599.41;11142241;26;20004;-75
2024/04/12 22:00:17;;;;;;;2.20;1.20;;;;;;;15.45;81.45;152569.56;11142173;26;20000;-73
2024/04/12 22:05:19;;;;;;;3.10;1.20;;;;;;;15.32;82.21;152538.53;11142097;26;20038;-74
2024/04/12 22:10:21;;;;;;;3.13;1.20;;;;;;;15.33;81.95;152539.81;11141897;26;20015;-73
2024/04/12 22:15:23;;;;;;;1.60;1.25;;;;;;;15.39;82.05;152556.63;11141552;26;20043;-72
2024/04/12 22:20:25;;;;;;;1.83;1.13;;;;;;;15.43;82.55;152564.41;11141506;26;20000;-73
2024/04/12 22:25:26;;;;;;;1.65;1.20;;;;;;;15.32;82.79;152538.53;11141512;26;20000;-72
2024/04/12 22:30:29;;;;;;;1.08;0.93;;;;;;;15.21;84.01;152508.69;11142145;26;20471;-73
2024/04/12 22:35:32;;;;;;;3.88;0.90;;;;;;;15.06;85.22;152471.16;11141117;26;20348;-73
2024/04/12 22:40:34;;;;;;;1.58;1.00;;;;;;;14.94;86.28;152441.34;11140976;26;20357;-73
2024/04/12 22:45:36;;;;;;;1.85;0.90;;;;;;;14.99;86.37;152453.00;11140515;26;20004;-73
2024/04/12 22:50:39;;;;;;;2.10;1.00;;;;;;;15.01;86.07;152459.50;11139486;26;20012;-74
2024/04/12 22:55:40;;;;;;;0.70;0.70;;;;;;;15.04;86.48;152465.94;11140444;26;20011;-73
2024/04/12 23:00:44;;;;;;;1.23;1.00;;;;;;;15.02;85.93;152460.78;11140652;26;20004;-73
2024/04/12 23:05:46;;;;;;;0.77;0.77;;;;;;;14.92;86.22;152434.84;11140143;26;20008;-72
2024/04/12 23:10:48;;;;;;;1.00;0.90;;;;;;;14.75;87.92;152393.44;11140306;26;20008;-73
2024/04/12 23:15:50;;;;;;;1.25;0.90;;;;;;;14.80;87.61;152406.38;11140303;26;20513;-74
2024/04/12 23:20:53;;;;;;;1.10;1.00;;;;;;;14.72;88.04;152385.63;11138353;26;20045;-72
2024/04/12 23:25:55;;;;;;;1.05;0.95;;;;;;;14.57;90.51;152348.09;11139847;26;20078;-73
2024/04/12 23:30:57;;;;;;;1.33;1.13;;;;;;;14.75;90.14;152392.13;11139910;26;20007;-74
2024/04/12 23:35:59;;;;;;;0.75;0.65;;;;;;;14.46;92.68;152319.53;11139447;26;20081;-74
2024/04/12 23:41:01;;;;;;;1.00;0.90;;;;;;;14.47;92.36;152320.81;11139285;26;20011;-71
2024/04/12 23:46:06;;;;;;;1.30;1.00;;;;;;;14.49;91.80;152327.38;11139454;26;20380;-73
2024/04/12 23:51:08;;;;;;;2.17;1.25;;;;;;;14.68;90.47;152373.97;11137671;26;20028;-73
2024/04/12 23:56:12;;;;;;;1.00;0.90;;;;;;;14.55;90.41;152342.91;11137202;26;20485;-74
